createdAt,value
2019-03-15T00:00:04.503Z,925.25
2019-03-15T00:01:36.317Z,925.25
2019-03-15T00:03:08.237Z,925.27
2019-03-15T00:04:40.363Z,925.35
2019-03-15T00:06:11.762Z,925.38
2019-03-15T00:07:43.576Z,925.41
2019-03-15T00:09:15.416Z,925.37
2019-03-15T00:10:47.457Z,925.42
2019-03-15T00:12:19.020Z,925.40
2019-03-15T00:13:50.837Z,925.44
2019-03-15T00:15:22.650Z,925.47
2019-03-15T00:16:54.565Z,925.47
2019-03-15T00:18:27.019Z,925.46
2019-03-15T00:19:58.248Z,925.46
2019-03-15T00:21:29.911Z,925.43
2019-03-15T00:23:01.726Z,925.46
2019-03-15T00:24:33.541Z,925.53
2019-03-15T00:26:05.356Z,925.58
2019-03-15T00:27:37.176Z,925.68
2019-03-15T00:29:09.087Z,925.69
2019-03-15T00:30:40.801Z,925.69
2019-03-15T00:32:12.617Z,925.75
2019-03-15T00:33:44.434Z,925.81
2019-03-15T00:35:16.319Z,925.80
2019-03-15T00:36:48.066Z,925.79
2019-03-15T00:38:19.877Z,925.79
2019-03-15T00:39:51.692Z,925.82
2019-03-15T00:41:23.607Z,925.81
2019-03-15T00:42:55.322Z,925.82
2019-03-15T00:44:27.138Z,925.82
2019-03-15T00:45:59.035Z,925.79
2019-03-15T00:47:31.014Z,925.87
2019-03-15T00:49:02.584Z,925.83
2019-03-15T00:50:34.475Z,925.87
2019-03-15T00:52:06.242Z,925.89
2019-03-15T00:53:38.029Z,925.88
2019-03-15T00:55:09.847Z,925.87
2019-03-15T00:56:41.771Z,925.90
2019-03-15T00:58:13.476Z,925.91
2019-03-15T00:59:45.289Z,925.95
2019-03-15T01:01:17.105Z,925.95
2019-03-15T01:02:48.920Z,926.06
2019-03-15T01:04:20.776Z,926.05
2019-03-15T01:05:52.650Z,926.07
2019-03-15T01:07:24.369Z,926.05
2019-03-15T01:08:56.179Z,926.11
2019-03-15T01:10:28.057Z,926.10
2019-03-15T01:11:59.809Z,926.09
2019-03-15T01:13:31.623Z,926.09
2019-03-15T01:15:03.446Z,926.08
2019-03-15T01:16:35.252Z,926.09
2019-03-15T01:18:07.167Z,926.11
2019-03-15T01:19:38.899Z,926.13
2019-03-15T01:21:10.840Z,926.12
2019-03-15T01:22:42.513Z,926.13
2019-03-15T01:24:14.429Z,926.06
2019-03-15T01:25:46.141Z,926.08
2019-03-15T01:27:17.955Z,926.06
2019-03-15T01:28:49.771Z,925.99
2019-03-15T01:30:21.583Z,925.99
2019-03-15T01:31:53.398Z,925.95
2019-03-15T01:33:25.213Z,925.90
2019-03-15T01:34:57.027Z,925.89
2019-03-15T01:36:28.842Z,925.92
2019-03-15T01:38:00.704Z,925.95
2019-03-15T01:39:32.470Z,925.94
2019-03-15T01:41:04.459Z,925.94
2019-03-15T01:42:36.349Z,926.00
2019-03-15T01:44:07.913Z,925.99
2019-03-15T01:45:39.727Z,925.97
2019-03-15T01:47:11.542Z,925.97
2019-03-15T01:48:43.497Z,925.96
2019-03-15T01:50:15.199Z,925.92
2019-03-15T01:51:46.983Z,925.87
2019-03-15T01:53:18.838Z,925.89
2019-03-15T01:54:50.612Z,925.80
2019-03-15T01:56:22.427Z,925.87
2019-03-15T01:57:54.243Z,925.87
2019-03-15T01:59:26.055Z,925.87
2019-03-15T02:00:57.970Z,925.87
2019-03-15T02:02:29.683Z,925.88
2019-03-15T02:04:01.498Z,925.83
2019-03-15T02:05:33.314Z,925.81
2019-03-15T02:07:05.127Z,925.74
2019-03-15T02:08:36.941Z,925.69
2019-03-15T02:10:08.952Z,925.74
2019-03-15T02:11:40.570Z,925.76
2019-03-15T02:13:12.385Z,925.73
2019-03-15T02:14:44.197Z,925.72
2019-03-15T02:16:16.012Z,925.73
2019-03-15T02:17:47.827Z,925.68
2019-03-15T02:19:19.741Z,925.73
2019-03-15T02:20:51.455Z,925.73
2019-03-15T02:22:23.268Z,925.77
2019-03-15T02:23:55.083Z,925.78
2019-03-15T02:25:27.489Z,925.82
2019-03-15T02:26:58.712Z,925.70
2019-03-15T02:28:30.526Z,925.71
2019-03-15T02:30:02.342Z,925.69
2019-03-15T02:31:34.156Z,925.64
2019-03-15T02:33:06.234Z,925.62
2019-03-15T02:34:38.568Z,925.57
2019-03-15T02:36:09.599Z,925.54
2019-03-15T02:37:41.513Z,925.52
2019-03-15T02:39:13.226Z,925.48
2019-03-15T02:40:45.041Z,925.50
2019-03-15T02:42:16.861Z,925.49
2019-03-15T02:43:48.670Z,925.44
2019-03-15T02:45:20.485Z,925.46
2019-03-15T02:46:52.656Z,925.41
2019-03-15T02:48:24.114Z,925.32
2019-03-15T02:49:56.034Z,925.35
2019-03-15T02:51:27.743Z,925.29
2019-03-15T02:52:59.558Z,925.31
2019-03-15T02:54:31.373Z,925.23
2019-03-15T02:56:03.289Z,925.18
2019-03-15T02:57:35.719Z,925.14
2019-03-15T02:59:06.833Z,925.11
2019-03-15T03:00:38.644Z,925.09
2019-03-15T03:02:10.446Z,925.05
2019-03-15T03:03:42.258Z,925.03
2019-03-15T03:05:14.075Z,925.05
2019-03-15T03:06:45.910Z,925.03
2019-03-15T03:08:17.703Z,925.04
2019-03-15T03:09:49.515Z,925.09
2019-03-15T03:11:21.330Z,925.09
2019-03-15T03:12:53.143Z,925.04
2019-03-15T03:14:25.058Z,925.02
2019-03-15T03:15:56.780Z,925.05
2019-03-15T03:17:28.587Z,924.98
2019-03-15T03:19:01.264Z,925.03
2019-03-15T03:20:32.322Z,925.07
2019-03-15T03:22:04.031Z,925.00
2019-03-15T03:23:35.853Z,925.02
2019-03-15T03:25:07.658Z,925.06
2019-03-15T03:26:40.294Z,925.01
2019-03-15T03:28:11.297Z,925.01
2019-03-15T03:29:43.101Z,925.01
2019-03-15T03:31:15.813Z,924.97
2019-03-15T03:32:46.830Z,924.93
2019-03-15T03:34:18.547Z,924.99
2019-03-15T03:35:50.357Z,924.98
2019-03-15T03:37:22.173Z,924.99
2019-03-15T03:38:54.087Z,924.95
2019-03-15T03:40:25.801Z,924.92
2019-03-15T03:41:57.616Z,924.93
2019-03-15T03:43:29.436Z,924.89
2019-03-15T03:45:01.345Z,924.90
2019-03-15T03:46:33.060Z,924.94
2019-03-15T03:48:04.875Z,924.95
2019-03-15T03:49:36.688Z,924.95
2019-03-15T03:51:08.878Z,924.97
2019-03-15T03:52:41.826Z,924.98
2019-03-15T03:54:12.136Z,924.98
2019-03-15T03:55:43.947Z,924.99
2019-03-15T03:57:15.762Z,924.95
2019-03-15T03:58:47.607Z,924.89
2019-03-15T04:00:19.393Z,924.93
2019-03-15T04:01:51.207Z,924.95
2019-03-15T04:03:23.122Z,924.91
2019-03-15T04:04:54.837Z,924.88
2019-03-15T04:06:26.651Z,924.81
2019-03-15T04:07:58.466Z,924.84
2019-03-15T04:09:30.381Z,924.84
2019-03-15T04:11:02.094Z,924.77
2019-03-15T04:12:33.908Z,924.86
2019-03-15T04:14:05.723Z,924.82
2019-03-15T04:15:37.638Z,924.80
2019-03-15T04:17:09.353Z,924.80
2019-03-15T04:18:41.169Z,924.77
2019-03-15T04:20:12.984Z,924.76
2019-03-15T04:21:44.903Z,924.72
2019-03-15T04:23:16.612Z,924.75
2019-03-15T04:24:48.429Z,924.72
2019-03-15T04:26:20.242Z,924.70
2019-03-15T04:27:52.157Z,924.63
2019-03-15T04:29:23.872Z,924.64
2019-03-15T04:30:55.686Z,924.62
2019-03-15T04:32:27.502Z,924.60
2019-03-15T04:33:59.317Z,924.57
2019-03-15T04:35:31.132Z,924.52
2019-03-15T04:37:02.946Z,924.53
2019-03-15T04:38:34.761Z,924.59
2019-03-15T04:40:06.576Z,924.60
2019-03-15T04:41:38.393Z,924.58
2019-03-15T04:43:10.204Z,924.61
2019-03-15T04:44:42.021Z,924.59
2019-03-15T04:46:13.936Z,924.62
2019-03-15T04:47:45.657Z,924.59
2019-03-15T04:49:17.463Z,924.63
2019-03-15T04:50:49.277Z,924.57
2019-03-15T04:52:21.195Z,924.59
2019-03-15T04:53:52.907Z,924.57
2019-03-15T04:55:24.722Z,924.56
2019-03-15T04:56:56.538Z,924.53
2019-03-15T04:58:28.351Z,924.51
2019-03-15T05:00:00.389Z,924.55
2019-03-15T05:01:31.981Z,924.48
2019-03-15T05:03:03.796Z,924.47
2019-03-15T05:04:35.710Z,924.43
2019-03-15T05:06:07.429Z,924.51
2019-03-15T05:07:39.239Z,924.59
2019-03-15T05:09:11.053Z,924.59
2019-03-15T05:10:42.867Z,924.55
2019-03-15T05:12:14.687Z,924.60
2019-03-15T05:13:46.496Z,924.64
2019-03-15T05:15:18.317Z,924.58
2019-03-15T05:16:50.226Z,924.57
2019-03-15T05:18:21.941Z,924.56
2019-03-15T05:19:53.755Z,924.58
2019-03-15T05:21:25.570Z,924.55
2019-03-15T05:22:57.585Z,924.52
2019-03-15T05:24:29.199Z,924.47
2019-03-15T05:26:01.013Z,924.50
2019-03-15T05:27:32.827Z,924.48
2019-03-15T05:29:04.642Z,924.43
2019-03-15T05:30:36.461Z,924.43
2019-03-15T05:32:08.277Z,924.38
2019-03-15T05:33:40.086Z,924.32
2019-03-15T05:35:11.916Z,924.27
2019-03-15T05:36:43.715Z,924.24
2019-03-15T05:38:15.531Z,924.18
2019-03-15T05:39:47.348Z,924.11
2019-03-15T05:41:19.261Z,924.01
2019-03-15T05:42:50.976Z,923.98
2019-03-15T05:44:22.790Z,923.95
2019-03-15T05:45:54.605Z,923.92
2019-03-15T05:47:26.419Z,923.95
2019-03-15T05:48:58.234Z,923.88
2019-03-15T05:50:30.048Z,923.89
2019-03-15T05:52:01.864Z,923.88
2019-03-15T05:53:33.777Z,923.83
2019-03-15T05:55:05.491Z,923.79
2019-03-15T05:56:37.305Z,923.78
2019-03-15T05:58:09.120Z,923.71
2019-03-15T05:59:41.034Z,923.68
2019-03-15T06:01:12.749Z,923.73
2019-03-15T06:02:44.565Z,923.71
2019-03-15T06:04:16.376Z,923.66
2019-03-15T06:05:48.208Z,923.61
2019-03-15T06:07:20.009Z,923.60
2019-03-15T06:08:51.820Z,923.59
2019-03-15T06:10:23.634Z,923.55
2019-03-15T06:11:55.453Z,923.53
2019-03-15T06:13:27.263Z,923.54
2019-03-15T06:14:59.077Z,923.51
2019-03-15T06:16:30.893Z,923.51
2019-03-15T06:18:02.856Z,923.47
2019-03-15T06:19:34.525Z,923.46
2019-03-15T06:21:06.337Z,923.45
2019-03-15T06:22:38.148Z,923.40
2019-03-15T06:24:10.064Z,923.44
2019-03-15T06:25:41.777Z,923.41
2019-03-15T06:27:13.590Z,923.38
2019-03-15T06:28:45.406Z,923.37
2019-03-15T06:30:17.219Z,923.33
2019-03-15T06:31:49.033Z,923.36
2019-03-15T06:33:20.848Z,923.35
2019-03-15T06:34:52.665Z,923.37
2019-03-15T06:36:24.575Z,923.35
2019-03-15T06:37:56.290Z,923.34
2019-03-15T06:39:28.104Z,923.41
2019-03-15T06:41:00.362Z,923.36
2019-03-15T06:42:31.745Z,923.33
2019-03-15T06:44:03.547Z,923.35
2019-03-15T06:45:35.361Z,923.33
2019-03-15T06:47:07.175Z,923.30
2019-03-15T06:48:38.989Z,923.32
2019-03-15T06:50:10.803Z,923.33
2019-03-15T06:51:42.622Z,923.38
2019-03-15T06:53:14.433Z,923.38
2019-03-15T06:54:46.446Z,923.34
2019-03-15T06:56:18.060Z,923.39
2019-03-15T06:57:49.874Z,923.40
2019-03-15T06:59:21.688Z,923.40
2019-03-15T07:00:54.899Z,923.47
2019-03-15T07:02:25.316Z,923.44
2019-03-15T07:03:57.130Z,923.47
2019-03-15T07:05:28.944Z,923.40
2019-03-15T07:07:00.761Z,923.38
2019-03-15T07:08:32.572Z,923.36
2019-03-15T07:10:04.389Z,923.31
2019-03-15T07:11:36.201Z,923.29
2019-03-15T07:13:08.116Z,923.31
2019-03-15T07:14:39.830Z,923.30
2019-03-15T07:16:11.644Z,923.28
2019-03-15T07:17:43.458Z,923.27
2019-03-15T07:19:25.740Z,923.20
2019-03-15T07:20:47.086Z,923.18
2019-03-15T07:22:20.111Z,923.19
2019-03-15T07:23:50.715Z,923.16
2019-03-15T07:25:22.628Z,923.13
2019-03-15T07:26:54.518Z,923.09
2019-03-15T07:28:26.162Z,923.14
2019-03-15T07:29:59.948Z,923.13
2019-03-15T07:31:29.885Z,923.17
2019-03-15T07:33:01.599Z,923.14
2019-03-15T07:34:33.414Z,923.14
2019-03-15T07:36:05.229Z,923.09
2019-03-15T07:37:37.041Z,923.07
2019-03-15T07:39:08.855Z,923.04
2019-03-15T07:40:40.671Z,923.01
2019-03-15T07:42:12.484Z,923.04
2019-03-15T07:43:44.299Z,923.07
2019-03-15T07:45:16.112Z,923.11
2019-03-15T07:46:50.913Z,923.18
2019-03-15T07:48:22.827Z,923.18
2019-03-15T07:49:51.855Z,923.17
2019-03-15T07:51:23.371Z,923.16
2019-03-15T07:52:55.186Z,923.18
2019-03-15T07:54:37.458Z,923.14
2019-03-15T07:55:58.912Z,923.14
2019-03-15T07:57:30.626Z,923.15
2019-03-15T07:59:02.440Z,923.22
2019-03-15T08:00:34.254Z,923.25
2019-03-15T08:02:06.071Z,923.28
2019-03-15T08:03:37.882Z,923.31
2019-03-15T08:05:09.696Z,923.34
2019-03-15T08:06:41.510Z,923.40
2019-03-15T08:08:13.426Z,923.41
2019-03-15T08:09:45.142Z,923.50
2019-03-15T08:11:16.953Z,923.49
2019-03-15T08:12:49.812Z,923.56
2019-03-15T08:14:20.580Z,923.59
2019-03-15T08:15:52.396Z,923.65
2019-03-15T08:17:24.210Z,923.66
2019-03-15T08:18:56.023Z,923.69
2019-03-15T08:20:27.837Z,923.71
2019-03-15T08:21:59.652Z,923.79
2019-03-15T08:23:31.466Z,923.81
2019-03-15T08:25:03.281Z,923.84
2019-03-15T08:26:35.295Z,923.78
2019-03-15T08:28:06.909Z,923.87
2019-03-15T08:29:38.724Z,923.93
2019-03-15T08:31:10.538Z,923.96
2019-03-15T08:32:43.894Z,923.95
2019-03-15T08:34:14.166Z,923.95
2019-03-15T08:35:45.981Z,923.97
2019-03-15T08:37:17.796Z,924.01
2019-03-15T08:38:49.611Z,924.04
2019-03-15T08:40:21.432Z,924.11
2019-03-15T08:41:53.242Z,924.11
2019-03-15T08:43:25.073Z,924.10
2019-03-15T08:44:56.968Z,924.14
2019-03-15T08:46:28.690Z,924.14
2019-03-15T08:48:00.497Z,924.15
2019-03-15T08:49:32.311Z,924.17
2019-03-15T08:51:04.127Z,924.13
2019-03-15T08:52:35.941Z,924.14
2019-03-15T08:54:07.759Z,924.09
2019-03-15T08:55:40.111Z,924.09
2019-03-15T08:57:11.484Z,924.11
2019-03-15T08:58:43.223Z,924.14
2019-03-15T09:00:15.019Z,924.18
2019-03-15T09:01:46.882Z,924.25
2019-03-15T09:03:27.855Z,924.26
2019-03-15T09:04:50.658Z,924.31
2019-03-15T09:06:22.390Z,924.37
2019-03-15T09:07:54.112Z,924.42
2019-03-15T09:09:25.965Z,924.49
2019-03-15T09:10:57.774Z,924.53
2019-03-15T09:12:29.541Z,924.60
2019-03-15T09:14:01.451Z,924.61
2019-03-15T09:15:33.211Z,924.68
2019-03-15T09:17:04.979Z,924.70
2019-03-15T09:18:36.794Z,924.70
2019-03-15T09:20:08.895Z,924.70
2019-03-15T09:21:40.659Z,924.72
2019-03-15T09:23:12.242Z,924.72
2019-03-15T09:24:46.144Z,924.71
2019-03-15T09:26:16.158Z,924.76
2019-03-15T09:27:47.981Z,924.82
2019-03-15T09:29:19.829Z,924.89
2019-03-15T09:30:51.782Z,924.91
2019-03-15T09:32:23.362Z,924.90
2019-03-15T09:33:55.102Z,924.94
2019-03-15T09:35:28.720Z,924.96
2019-03-15T09:36:58.968Z,925.04
2019-03-15T09:38:31.647Z,925.05
2019-03-15T09:40:05.389Z,925.02
2019-03-15T09:41:39.758Z,925.05
2019-03-15T09:43:06.295Z,925.11
2019-03-15T09:44:38.523Z,925.15
2019-03-15T09:46:12.539Z,925.17
2019-03-15T09:47:41.901Z,925.17
2019-03-15T09:49:13.557Z,925.19
2019-03-15T09:50:51.137Z,925.16
2019-03-15T09:52:18.007Z,925.18
2019-03-15T09:53:49.858Z,925.25
2019-03-15T09:55:32.919Z,925.25
2019-03-15T09:56:53.509Z,925.34
2019-03-15T09:58:24.490Z,925.43
2019-03-15T09:59:56.166Z,925.50
2019-03-15T10:01:34.654Z,925.54
2019-03-15T10:03:00.968Z,925.53
2019-03-15T10:04:31.737Z,925.54
2019-03-15T10:06:14.378Z,925.59
2019-03-15T10:07:38.638Z,925.67
2019-03-15T10:09:07.222Z,925.65
2019-03-15T10:10:38.907Z,925.65
2019-03-15T10:12:11.212Z,925.70
2019-03-15T10:13:42.676Z,925.70
2019-03-15T10:15:14.246Z,925.72
2019-03-15T10:16:46.531Z,925.85
2019-03-15T10:18:17.986Z,925.83
2019-03-15T10:19:49.420Z,925.85
2019-03-15T10:21:21.684Z,925.86
2019-03-15T10:23:05.502Z,925.89
2019-03-15T10:24:25.175Z,925.87
2019-03-15T10:25:57.796Z,926.02
2019-03-15T10:29:14.744Z,925.96
2019-03-15T10:30:32.148Z,926.10
2019-03-15T10:32:04.133Z,925.95
2019-03-15T10:33:49.613Z,926.00
2019-03-15T10:35:09.351Z,925.98
2019-03-15T10:36:39.840Z,925.97
2019-03-15T10:38:11.272Z,925.98
2019-03-15T10:39:43.620Z,926.05
2019-03-15T10:41:15.508Z,926.10
2019-03-15T10:42:47.349Z,926.10
2019-03-15T10:44:18.521Z,926.18
2019-03-15T10:45:50.678Z,926.16
2019-03-15T10:47:22.491Z,926.18
2019-03-15T10:48:54.786Z,926.25
2019-03-15T10:50:26.148Z,926.21
2019-03-15T10:51:58.472Z,926.22
2019-03-15T10:53:30.209Z,926.25
2019-03-15T10:55:01.263Z,926.28
2019-03-15T10:56:33.600Z,926.27
2019-03-15T10:58:05.901Z,926.21
2019-03-15T10:59:37.180Z,926.24
2019-03-15T11:01:09.451Z,926.23
2019-03-15T11:02:40.669Z,926.26
2019-03-15T11:04:12.520Z,926.22
2019-03-15T11:05:44.515Z,926.29
2019-03-15T11:07:16.215Z,926.30
2019-03-15T11:10:20.142Z,926.42
2019-03-15T11:11:51.883Z,926.45
2019-03-15T11:13:23.102Z,926.52
2019-03-15T11:14:55.604Z,926.50
2019-03-15T11:16:27.867Z,926.50
2019-03-15T11:17:58.928Z,926.48
2019-03-15T11:19:30.384Z,926.51
2019-03-15T11:21:02.825Z,926.53
2019-03-15T11:22:34.426Z,926.54
2019-03-15T11:24:06.074Z,926.52
2019-03-15T11:25:38.121Z,926.52
2019-03-15T11:28:43.399Z,926.61
2019-03-15T11:30:13.559Z,926.69
2019-03-15T11:31:45.801Z,926.64
2019-03-15T11:33:17.367Z,926.65
2019-03-15T11:34:48.949Z,926.66
2019-03-15T11:36:21.089Z,926.66
2019-03-15T11:37:52.231Z,926.73
2019-03-15T11:39:24.858Z,926.72
2019-03-15T11:40:56.317Z,926.73
2019-03-15T11:42:29.300Z,926.73
2019-03-15T11:44:03.586Z,926.74
2019-03-15T11:45:33.981Z,926.74
2019-03-15T11:47:03.512Z,926.71
2019-03-15T11:48:35.893Z,926.71
2019-03-15T11:50:08.204Z,926.73
2019-03-15T11:51:38.623Z,926.72
2019-03-15T11:53:11.217Z,926.77
2019-03-15T11:54:44.044Z,926.76
2019-03-15T11:57:46.713Z,926.73
2019-03-15T11:59:18.251Z,926.77
2019-03-15T12:00:50.067Z,926.77
2019-03-15T12:02:22.717Z,926.89
2019-03-15T12:03:53.775Z,926.94
2019-03-15T12:05:25.437Z,927.06
2019-03-15T12:06:57.639Z,927.20
2019-03-15T12:08:29.326Z,927.26
2019-03-15T12:10:00.969Z,927.22
2019-03-15T12:11:32.681Z,927.15
2019-03-15T12:13:04.359Z,927.15
2019-03-15T12:14:41.176Z,927.11
2019-03-15T12:16:08.343Z,927.19
2019-03-15T12:17:40.022Z,927.16
2019-03-15T12:19:11.885Z,927.06
2019-03-15T12:20:43.471Z,927.03
2019-03-15T12:22:15.680Z,927.07
2019-03-15T12:23:47.314Z,927.07
2019-03-15T12:25:19.368Z,927.10
2019-03-15T12:26:51.060Z,927.02
2019-03-15T12:28:22.863Z,927.12
2019-03-15T12:29:54.639Z,927.09
2019-03-15T12:31:26.461Z,927.17
2019-03-15T12:32:58.374Z,927.11
2019-03-15T12:34:30.062Z,927.04
2019-03-15T12:36:03.312Z,927.17
2019-03-15T12:37:33.597Z,927.30
2019-03-15T12:39:05.440Z,927.33
2019-03-15T12:40:37.524Z,927.38
2019-03-15T12:42:09.036Z,927.45
2019-03-15T12:43:41.050Z,927.47
2019-03-15T12:45:13.096Z,927.53
2019-03-15T12:46:44.781Z,927.47
2019-03-15T12:48:16.520Z,927.42
2019-03-15T12:49:48.331Z,927.33
2019-03-15T12:51:31.578Z,927.30
2019-03-15T12:52:51.972Z,927.39
2019-03-15T12:54:23.710Z,927.45
2019-03-15T12:55:55.596Z,927.47
2019-03-15T12:57:27.411Z,927.44
2019-03-15T12:58:59.264Z,927.38
2019-03-15T13:00:31.067Z,927.29
2019-03-15T13:02:03.595Z,927.40
2019-03-15T13:03:35.067Z,927.56
2019-03-15T13:05:06.647Z,927.72
2019-03-15T13:06:37.919Z,927.55
2019-03-15T13:08:10.648Z,927.49
2019-03-15T13:09:41.936Z,927.56
2019-03-15T13:11:13.926Z,927.67
2019-03-15T13:12:45.997Z,927.65
2019-03-15T13:14:17.001Z,927.62
2019-03-15T13:15:49.261Z,927.59
2019-03-15T13:17:20.648Z,927.60
2019-03-15T13:18:53.322Z,927.63
2019-03-15T13:20:25.016Z,927.71
2019-03-15T13:21:56.721Z,927.71
2019-03-15T13:23:28.481Z,927.79
2019-03-15T13:24:59.795Z,927.81
2019-03-15T13:26:32.330Z,927.73
2019-03-15T13:28:03.614Z,927.57
2019-03-15T13:29:35.956Z,927.49
2019-03-15T13:31:08.336Z,927.55
2019-03-15T13:32:39.555Z,927.59
2019-03-15T13:34:11.518Z,927.65
2019-03-15T13:35:43.112Z,927.71
2019-03-15T13:37:15.171Z,927.69
2019-03-15T13:38:46.275Z,927.61
2019-03-15T13:40:18.727Z,927.62
2019-03-15T13:41:49.854Z,927.73
2019-03-15T13:43:22.103Z,927.78
2019-03-15T13:44:53.999Z,927.77
2019-03-15T13:46:25.592Z,927.60
2019-03-15T13:47:57.592Z,927.61
2019-03-15T13:49:28.940Z,927.58
2019-03-15T13:51:02.141Z,927.49
2019-03-15T13:52:32.589Z,927.47
2019-03-15T13:54:04.967Z,927.40
2019-03-15T13:55:37.563Z,927.47
2019-03-15T13:57:20.713Z,927.44
2019-03-15T13:58:40.450Z,927.46
2019-03-15T14:00:12.641Z,927.51
2019-03-15T14:01:44.295Z,927.53
2019-03-15T14:03:16.290Z,927.60
2019-03-15T14:04:48.097Z,927.56
2019-03-15T14:06:19.007Z,927.50
2019-03-15T14:07:51.335Z,927.52
2019-03-15T14:09:24.325Z,927.55
2019-03-15T14:10:54.480Z,927.56
2019-03-15T14:12:27.220Z,927.57
2019-03-15T14:13:58.130Z,927.52
2019-03-15T14:15:30.465Z,927.51
2019-03-15T14:17:01.813Z,927.47
2019-03-15T14:18:33.979Z,927.41
2019-03-15T14:20:06.135Z,927.42
2019-03-15T14:21:37.264Z,927.43
2019-03-15T14:23:10.289Z,927.45
2019-03-15T14:24:40.920Z,927.43
2019-03-15T14:26:13.144Z,927.38
2019-03-15T14:27:44.572Z,927.25
2019-03-15T14:29:16.943Z,927.23
2019-03-15T14:30:48.728Z,927.18
2019-03-15T14:32:21.344Z,927.10
2019-03-15T14:33:52.166Z,927.00
2019-03-15T14:35:24.375Z,926.89
2019-03-15T14:36:56.216Z,926.87
2019-03-15T14:38:27.762Z,927.00
2019-03-15T14:39:59.800Z,927.00
2019-03-15T14:41:31.035Z,926.97
2019-03-15T14:43:03.702Z,926.94
2019-03-15T14:44:35.491Z,926.96
2019-03-15T14:46:07.039Z,926.98
2019-03-15T14:47:38.806Z,926.90
2019-03-15T14:49:10.304Z,926.81
2019-03-15T14:50:42.501Z,926.88
2019-03-15T14:52:13.977Z,926.87
2019-03-15T14:53:46.269Z,926.79
2019-03-15T14:55:17.542Z,926.84
2019-03-15T14:56:49.914Z,926.90
2019-03-15T14:58:21.839Z,926.82
2019-03-15T14:59:53.347Z,926.71
2019-03-15T15:01:25.537Z,926.56
2019-03-15T15:02:56.693Z,926.48
2019-03-15T15:04:29.412Z,926.43
2019-03-15T15:06:00.350Z,926.21
2019-03-15T15:07:32.805Z,926.22
2019-03-15T15:10:36.648Z,926.18
2019-03-15T15:12:08.426Z,926.19
2019-03-15T15:13:39.506Z,926.19
2019-03-15T15:15:11.874Z,926.08
2019-03-15T15:16:43.176Z,925.98
2019-03-15T15:18:15.444Z,925.95
2019-03-15T15:19:46.835Z,925.97
2019-03-15T15:21:19.072Z,925.95
2019-03-15T15:22:50.934Z,926.00
2019-03-15T15:24:22.533Z,925.96
2019-03-15T15:25:54.726Z,925.92
2019-03-15T15:27:25.982Z,925.89
2019-03-15T15:28:58.510Z,925.86
2019-03-15T15:30:29.644Z,925.69
2019-03-15T15:32:01.918Z,925.79
2019-03-15T15:35:05.615Z,926.02
2019-03-15T15:36:37.450Z,926.08
2019-03-15T15:38:08.798Z,925.97
2019-03-15T15:39:41.306Z,925.89
2019-03-15T15:41:12.455Z,925.64
2019-03-15T15:42:44.687Z,925.78
2019-03-15T15:44:16.543Z,925.74
2019-03-15T15:45:48.489Z,925.85
2019-03-15T15:47:20.715Z,925.94
2019-03-15T15:48:51.614Z,925.91
2019-03-15T15:50:24.029Z,925.81
2019-03-15T15:51:55.496Z,925.69
2019-03-15T15:53:27.609Z,925.41
2019-03-15T15:54:59.262Z,925.28
2019-03-15T15:56:31.000Z,925.18
2019-03-15T15:58:02.956Z,925.18
2019-03-15T15:59:34.445Z,925.34
2019-03-15T16:01:06.691Z,925.51
2019-03-15T16:02:38.105Z,925.52
2019-03-15T16:04:10.403Z,925.45
2019-03-15T16:05:41.866Z,925.39
2019-03-15T16:07:13.970Z,925.36
2019-03-15T16:08:45.993Z,925.33
2019-03-15T16:10:18.433Z,925.24
2019-03-15T16:11:49.534Z,925.23
2019-03-15T16:13:20.915Z,925.30
2019-03-15T16:14:53.448Z,925.33
2019-03-15T16:16:25.693Z,925.26
2019-03-15T16:17:56.399Z,925.23
2019-03-15T16:19:28.711Z,925.19
2019-03-15T16:21:00.058Z,925.19
2019-03-15T16:22:32.376Z,925.12
2019-03-15T16:24:04.321Z,925.14
2019-03-15T16:25:36.249Z,925.20
2019-03-15T16:27:07.937Z,925.19
2019-03-15T16:30:12.039Z,925.28
2019-03-15T16:31:43.180Z,925.27
2019-03-15T16:33:15.261Z,925.29
2019-03-15T16:34:46.986Z,925.29
2019-03-15T16:36:18.866Z,925.27
2019-03-15T16:37:50.820Z,925.27
2019-03-15T16:39:22.023Z,925.34
2019-03-15T16:40:54.606Z,925.26
2019-03-15T16:42:25.783Z,925.04
2019-03-15T16:43:57.693Z,925.12
2019-03-15T16:45:29.337Z,925.18
2019-03-15T16:47:01.600Z,925.15
2019-03-15T16:48:33.369Z,925.10
2019-03-15T16:50:04.835Z,925.15
2019-03-15T16:51:36.978Z,925.20
2019-03-15T16:53:08.461Z,925.21
2019-03-15T16:54:40.585Z,925.11
2019-03-15T16:56:12.112Z,925.16
2019-03-15T16:57:44.193Z,925.15
2019-03-15T16:59:16.106Z,925.23
2019-03-15T17:00:47.801Z,925.20
2019-03-15T17:02:19.667Z,925.12
2019-03-15T17:03:51.247Z,925.08
2019-03-15T17:06:55.096Z,924.89
2019-03-15T17:08:27.027Z,924.84
2019-03-15T17:09:58.825Z,924.77
2019-03-15T17:11:30.778Z,924.79
2019-03-15T17:13:02.525Z,924.88
2019-03-15T17:14:34.027Z,924.88
2019-03-15T17:16:06.281Z,924.90
2019-03-15T17:17:37.673Z,924.96
2019-03-15T17:19:10.012Z,924.94
2019-03-15T17:20:41.529Z,924.95
2019-03-15T17:22:13.392Z,924.96
2019-03-15T17:23:45.052Z,924.93
2019-03-15T17:25:17.165Z,925.00
2019-03-15T17:26:51.480Z,924.98
2019-03-15T17:28:20.689Z,925.01
2019-03-15T17:29:52.341Z,924.98
2019-03-15T17:31:24.348Z,924.87
2019-03-15T17:32:56.225Z,924.80
2019-03-15T17:34:28.021Z,924.76
2019-03-15T17:35:59.920Z,924.71
2019-03-15T17:37:31.817Z,924.74
2019-03-15T17:39:03.738Z,924.77
2019-03-15T17:40:35.926Z,924.85
2019-03-15T17:42:07.150Z,924.81
2019-03-15T17:43:38.947Z,924.76
2019-03-15T17:45:11.314Z,924.81
2019-03-15T17:46:42.959Z,924.80
2019-03-15T17:48:14.458Z,924.82
2019-03-15T17:49:46.360Z,924.75
2019-03-15T17:51:20.719Z,924.94
2019-03-15T17:52:49.910Z,924.68
2019-03-15T17:54:22.035Z,924.77
2019-03-15T17:55:53.734Z,924.80
2019-03-15T17:57:25.387Z,924.75
2019-03-15T17:58:57.129Z,924.79
2019-03-15T18:00:29.058Z,924.78
2019-03-15T18:02:00.832Z,924.80
2019-03-15T18:03:32.676Z,924.85
2019-03-15T18:05:04.484Z,924.77
2019-03-15T18:06:36.332Z,924.63
2019-03-15T18:08:08.171Z,924.51
2019-03-15T18:09:40.069Z,924.49
2019-03-15T18:11:11.793Z,924.48
2019-03-15T18:12:43.661Z,924.50
2019-03-15T18:14:15.723Z,924.45
2019-03-15T18:15:47.288Z,924.48
2019-03-15T18:17:19.187Z,924.45
2019-03-15T18:18:50.943Z,924.47
2019-03-15T18:20:22.765Z,924.42
2019-03-15T18:21:54.674Z,924.47
2019-03-15T18:23:26.448Z,924.45
2019-03-15T18:24:58.224Z,924.43
2019-03-15T18:26:30.144Z,924.48
2019-03-15T18:28:01.902Z,924.38
2019-03-15T18:29:33.599Z,924.42
2019-03-15T18:31:05.610Z,924.46
2019-03-15T18:32:37.528Z,924.28
2019-03-15T18:34:09.206Z,924.33
2019-03-15T18:35:41.006Z,924.30
2019-03-15T18:37:12.782Z,924.33
2019-03-15T18:38:44.751Z,924.30
2019-03-15T18:40:16.533Z,924.24
2019-03-15T18:41:50.509Z,924.27
2019-03-15T18:43:20.115Z,924.26
2019-03-15T18:44:51.991Z,924.31
2019-03-15T18:46:23.815Z,924.28
2019-03-15T18:47:55.478Z,924.22
2019-03-15T18:49:27.443Z,924.16
2019-03-15T18:50:59.201Z,924.26
2019-03-15T18:52:30.973Z,924.33
2019-03-15T18:54:02.868Z,924.30
2019-03-15T18:55:34.589Z,924.34
2019-03-15T18:57:06.528Z,924.32
2019-03-15T19:00:10.110Z,924.26
2019-03-15T19:01:41.886Z,924.23
2019-03-15T19:03:13.705Z,924.24
2019-03-15T19:04:45.580Z,924.10
2019-03-15T19:06:17.468Z,924.10
2019-03-15T19:07:49.198Z,924.09
2019-03-15T19:09:21.223Z,924.10
2019-03-15T19:10:52.746Z,924.02
2019-03-15T19:12:24.692Z,924.05
2019-03-15T19:13:56.511Z,924.06
2019-03-15T19:15:28.292Z,924.09
2019-03-15T19:17:00.226Z,924.17
2019-03-15T19:18:31.934Z,924.19